sensor_id;sensor_type;location;lat;lon;timestamp;temperature;humidity
65406;DHT22;52016;51.228;-2.322;2022-07-17T00:00:55;22.60;48.40
65406;DHT22;52016;51.228;-2.322;2022-07-17T00:04:37;22.60;48.50
65406;DHT22;52016;51.228;-2.322;2022-07-17T00:08:20;22.60;48.50
65406;DHT22;52016;51.228;-2.322;2022-07-17T00:12:02;22.50;48.80
65406;DHT22;52016;51.228;-2.322;2022-07-17T00:15:44;22.40;49.00
65406;DHT22;52016;51.228;-2.322;2022-07-17T00:19:26;22.40;49.00
65406;DHT22;52016;51.228;-2.322;2022-07-17T00:23:08;22.40;49.30
65406;DHT22;52016;51.228;-2.322;2022-07-17T00:26:51;22.30;49.40
65406;DHT22;52016;51.228;-2.322;2022-07-17T00:30:33;22.10;49.50
65406;DHT22;52016;51.228;-2.322;2022-07-17T00:34:16;22.00;49.70
65406;DHT22;52016;51.228;-2.322;2022-07-17T00:38:02;22.00;49.90
65406;DHT22;52016;51.228;-2.322;2022-07-17T00:41:44;21.90;49.80
65406;DHT22;52016;51.228;-2.322;2022-07-17T00:45:27;21.90;49.90
65406;DHT22;52016;51.228;-2.322;2022-07-17T00:49:09;21.90;50.00
65406;DHT22;52016;51.228;-2.322;2022-07-17T00:52:51;21.70;50.20
65406;DHT22;52016;51.228;-2.322;2022-07-17T00:56:34;21.60;50.40
65406;DHT22;52016;51.228;-2.322;2022-07-17T01:00:18;21.60;50.50
65406;DHT22;52016;51.228;-2.322;2022-07-17T01:04:00;21.60;50.50
65406;DHT22;52016;51.228;-2.322;2022-07-17T01:07:43;21.70;50.60
65406;DHT22;52016;51.228;-2.322;2022-07-17T01:11:25;21.60;50.50
65406;DHT22;52016;51.228;-2.322;2022-07-17T01:15:08;21.60;50.60
65406;DHT22;52016;51.228;-2.322;2022-07-17T01:18:51;21.70;50.70
65406;DHT22;52016;51.228;-2.322;2022-07-17T01:22:44;21.60;50.70
65406;DHT22;52016;51.228;-2.322;2022-07-17T01:26:26;21.70;52.20
65406;DHT22;52016;51.228;-2.322;2022-07-17T01:30:09;21.70;50.60
65406;DHT22;52016;51.228;-2.322;2022-07-17T01:33:51;21.70;50.50
65406;DHT22;52016;51.228;-2.322;2022-07-17T01:37:34;21.70;50.50
65406;DHT22;52016;51.228;-2.322;2022-07-17T01:41:16;21.70;50.50
65406;DHT22;52016;51.228;-2.322;2022-07-17T01:44:58;21.60;50.40
65406;DHT22;52016;51.228;-2.322;2022-07-17T01:48:41;21.60;50.50
65406;DHT22;52016;51.228;-2.322;2022-07-17T01:52:24;21.60;50.60
65406;DHT22;52016;51.228;-2.322;2022-07-17T01:56:06;21.40;51.00
65406;DHT22;52016;51.228;-2.322;2022-07-17T01:59:48;21.20;51.50
65406;DHT22;52016;51.228;-2.322;2022-07-17T02:03:30;21.20;51.70
65406;DHT22;52016;51.228;-2.322;2022-07-17T02:07:13;21.10;51.80
65406;DHT22;52016;51.228;-2.322;2022-07-17T02:10:55;21.00;52.20
65406;DHT22;52016;51.228;-2.322;2022-07-17T02:14:37;20.90;52.30
65406;DHT22;52016;51.228;-2.322;2022-07-17T02:18:19;20.90;52.30
65406;DHT22;52016;51.228;-2.322;2022-07-17T02:22:01;21.00;52.30
65406;DHT22;52016;51.228;-2.322;2022-07-17T02:25:43;20.90;52.40
65406;DHT22;52016;51.228;-2.322;2022-07-17T02:29:25;20.90;52.50
65406;DHT22;52016;51.228;-2.322;2022-07-17T02:33:07;20.90;52.70
65406;DHT22;52016;51.228;-2.322;2022-07-17T02:36:49;20.80;52.90
65406;DHT22;52016;51.228;-2.322;2022-07-17T02:40:31;20.80;52.90
65406;DHT22;52016;51.228;-2.322;2022-07-17T02:44:13;20.80;52.90
65406;DHT22;52016;51.228;-2.322;2022-07-17T02:47:56;20.80;52.90
65406;DHT22;52016;51.228;-2.322;2022-07-17T02:51:37;20.80;52.90
65406;DHT22;52016;51.228;-2.322;2022-07-17T02:55:20;20.80;52.90
65406;DHT22;52016;51.228;-2.322;2022-07-17T02:59:02;20.80;53.00
65406;DHT22;52016;51.228;-2.322;2022-07-17T03:02:45;20.70;53.10
65406;DHT22;52016;51.228;-2.322;2022-07-17T03:06:27;20.60;53.30
65406;DHT22;52016;51.228;-2.322;2022-07-17T03:10:09;20.50;53.50
65406;DHT22;52016;51.228;-2.322;2022-07-17T03:13:51;20.40;53.80
65406;DHT22;52016;51.228;-2.322;2022-07-17T03:17:33;20.30;53.90
65406;DHT22;52016;51.228;-2.322;2022-07-17T03:21:15;20.20;54.00
65406;DHT22;52016;51.228;-2.322;2022-07-17T03:24:57;20.20;54.10
65406;DHT22;52016;51.228;-2.322;2022-07-17T03:28:39;20.20;54.20
65406;DHT22;52016;51.228;-2.322;2022-07-17T03:32:21;20.20;54.30
65406;DHT22;52016;51.228;-2.322;2022-07-17T03:36:03;20.10;54.30
65406;DHT22;52016;51.228;-2.322;2022-07-17T03:39:45;20.10;54.30
65406;DHT22;52016;51.228;-2.322;2022-07-17T03:43:27;20.10;54.30
65406;DHT22;52016;51.228;-2.322;2022-07-17T03:47:09;20.10;54.30
65406;DHT22;52016;51.228;-2.322;2022-07-17T03:50:51;20.00;54.30
65406;DHT22;52016;51.228;-2.322;2022-07-17T03:54:32;19.90;54.50
65406;DHT22;52016;51.228;-2.322;2022-07-17T03:58:14;19.90;54.50
65406;DHT22;52016;51.228;-2.322;2022-07-17T04:01:57;19.90;54.50
65406;DHT22;52016;51.228;-2.322;2022-07-17T04:05:39;19.90;54.50
65406;DHT22;52016;51.228;-2.322;2022-07-17T04:09:21;19.90;54.50
65406;DHT22;52016;51.228;-2.322;2022-07-17T04:13:03;19.90;54.50
65406;DHT22;52016;51.228;-2.322;2022-07-17T04:16:45;19.80;54.70
65406;DHT22;52016;51.228;-2.322;2022-07-17T04:20:27;19.70;55.00
65406;DHT22;52016;51.228;-2.322;2022-07-17T04:24:10;19.50;55.10
65406;DHT22;52016;51.228;-2.322;2022-07-17T04:27:52;19.50;55.20
65406;DHT22;52016;51.228;-2.322;2022-07-17T04:31:33;19.40;55.30
65406;DHT22;52016;51.228;-2.322;2022-07-17T04:35:16;19.40;55.30
65406;DHT22;52016;51.228;-2.322;2022-07-17T04:38:57;19.40;55.30
65406;DHT22;52016;51.228;-2.322;2022-07-17T04:42:39;19.40;55.30
65406;DHT22;52016;51.228;-2.322;2022-07-17T04:46:21;19.40;55.20
65406;DHT22;52016;51.228;-2.322;2022-07-17T04:50:03;19.40;55.20
65406;DHT22;52016;51.228;-2.322;2022-07-17T04:53:45;19.30;55.30
65406;DHT22;52016;51.228;-2.322;2022-07-17T04:57:27;19.30;55.40
65406;DHT22;52016;51.228;-2.322;2022-07-17T05:01:09;19.30;55.40
65406;DHT22;52016;51.228;-2.322;2022-07-17T05:04:52;19.30;55.60
65406;DHT22;52016;51.228;-2.322;2022-07-17T05:08:34;19.30;55.50
65406;DHT22;52016;51.228;-2.322;2022-07-17T05:12:16;19.30;55.50
65406;DHT22;52016;51.228;-2.322;2022-07-17T05:15:58;19.40;55.40
65406;DHT22;52016;51.228;-2.322;2022-07-17T05:19:40;19.40;55.30
65406;DHT22;52016;51.228;-2.322;2022-07-17T05:23:22;19.50;55.20
65406;DHT22;52016;51.228;-2.322;2022-07-17T05:27:04;19.60;55.10
65406;DHT22;52016;51.228;-2.322;2022-07-17T05:30:46;19.70;54.90
65406;DHT22;52016;51.228;-2.322;2022-07-17T05:34:28;19.80;54.90
65406;DHT22;52016;51.228;-2.322;2022-07-17T05:38:10;19.80;54.80
65406;DHT22;52016;51.228;-2.322;2022-07-17T05:41:52;19.80;54.80
65406;DHT22;52016;51.228;-2.322;2022-07-17T05:45:34;19.90;54.70
65406;DHT22;52016;51.228;-2.322;2022-07-17T05:49:16;19.90;54.70
65406;DHT22;52016;51.228;-2.322;2022-07-17T05:52:58;20.00;54.70
65406;DHT22;52016;51.228;-2.322;2022-07-17T05:56:39;20.00;54.90
65406;DHT22;52016;51.228;-2.322;2022-07-17T06:00:21;20.10;54.70
65406;DHT22;52016;51.228;-2.322;2022-07-17T06:04:03;20.10;54.80
65406;DHT22;52016;51.228;-2.322;2022-07-17T06:07:46;20.00;54.90
65406;DHT22;52016;51.228;-2.322;2022-07-17T06:11:27;20.10;55.00
65406;DHT22;52016;51.228;-2.322;2022-07-17T06:15:17;20.10;55.10
65406;DHT22;52016;51.228;-2.322;2022-07-17T06:18:59;20.10;55.20
65406;DHT22;52016;51.228;-2.322;2022-07-17T06:22:42;20.10;55.30
65406;DHT22;52016;51.228;-2.322;2022-07-17T06:26:24;20.20;55.40
65406;DHT22;52016;51.228;-2.322;2022-07-17T06:30:08;20.20;55.50
65406;DHT22;52016;51.228;-2.322;2022-07-17T06:33:50;20.20;55.60
65406;DHT22;52016;51.228;-2.322;2022-07-17T06:37:32;20.30;55.60
65406;DHT22;52016;51.228;-2.322;2022-07-17T06:41:13;20.40;55.60
65406;DHT22;52016;51.228;-2.322;2022-07-17T06:44:55;20.50;55.60
65406;DHT22;52016;51.228;-2.322;2022-07-17T06:48:37;20.60;55.70
65406;DHT22;52016;51.228;-2.322;2022-07-17T06:52:19;20.80;55.80
65406;DHT22;52016;51.228;-2.322;2022-07-17T06:56:01;20.90;55.70
65406;DHT22;52016;51.228;-2.322;2022-07-17T06:59:43;21.00;55.60
65406;DHT22;52016;51.228;-2.322;2022-07-17T07:03:25;21.10;55.60
65406;DHT22;52016;51.228;-2.322;2022-07-17T07:07:07;21.20;55.50
65406;DHT22;52016;51.228;-2.322;2022-07-17T07:10:48;21.40;55.60
65406;DHT22;52016;51.228;-2.322;2022-07-17T07:14:30;21.40;55.60
65406;DHT22;52016;51.228;-2.322;2022-07-17T07:18:12;21.50;55.70
65406;DHT22;52016;51.228;-2.322;2022-07-17T07:21:54;21.60;55.70
65406;DHT22;52016;51.228;-2.322;2022-07-17T07:25:36;21.70;55.70
65406;DHT22;52016;51.228;-2.322;2022-07-17T07:29:18;21.80;55.70
65406;DHT22;52016;51.228;-2.322;2022-07-17T07:33:00;21.80;55.80
65406;DHT22;52016;51.228;-2.322;2022-07-17T07:36:42;21.90;55.70
65406;DHT22;52016;51.228;-2.322;2022-07-17T07:40:24;22.00;55.60
65406;DHT22;52016;51.228;-2.322;2022-07-17T07:44:06;22.20;55.40
65406;DHT22;52016;51.228;-2.322;2022-07-17T07:47:49;22.30;55.20
65406;DHT22;52016;51.228;-2.322;2022-07-17T07:51:34;22.40;54.70
65406;DHT22;52016;51.228;-2.322;2022-07-17T07:55:36;22.40;54.40
65406;DHT22;52016;51.228;-2.322;2022-07-17T07:59:18;22.60;54.10
65406;DHT22;52016;51.228;-2.322;2022-07-17T08:03:00;22.70;53.90
65406;DHT22;52016;51.228;-2.322;2022-07-17T08:06:42;22.70;53.60
65406;DHT22;52016;51.228;-2.322;2022-07-17T08:10:24;22.90;53.40
65406;DHT22;52016;51.228;-2.322;2022-07-17T08:14:06;23.00;53.20
65406;DHT22;52016;51.228;-2.322;2022-07-17T08:17:57;23.00;52.80
65406;DHT22;52016;51.228;-2.322;2022-07-17T08:21:39;23.10;52.60
65406;DHT22;52016;51.228;-2.322;2022-07-17T08:25:21;23.20;52.50
65406;DHT22;52016;51.228;-2.322;2022-07-17T08:29:03;23.30;52.30
65406;DHT22;52016;51.228;-2.322;2022-07-17T08:32:45;23.40;52.20
65406;DHT22;52016;51.228;-2.322;2022-07-17T08:36:27;23.40;52.10
65406;DHT22;52016;51.228;-2.322;2022-07-17T08:40:16;23.60;51.80
65406;DHT22;52016;51.228;-2.322;2022-07-17T08:43:58;23.70;51.40
65406;DHT22;52016;51.228;-2.322;2022-07-17T08:47:40;23.80;51.40
65406;DHT22;52016;51.228;-2.322;2022-07-17T08:51:24;23.90;51.10
65406;DHT22;52016;51.228;-2.322;2022-07-17T08:55:10;24.00;50.80
65406;DHT22;52016;51.228;-2.322;2022-07-17T08:58:52;24.10;50.80
65406;DHT22;52016;51.228;-2.322;2022-07-17T09:02:34;24.30;50.50
65406;DHT22;52016;51.228;-2.322;2022-07-17T09:06:21;24.40;50.00
65406;DHT22;52016;51.228;-2.322;2022-07-17T09:10:04;24.40;49.10
65406;DHT22;52016;51.228;-2.322;2022-07-17T09:13:46;24.50;49.60
65406;DHT22;52016;51.228;-2.322;2022-07-17T09:17:33;24.70;49.40
65406;DHT22;52016;51.228;-2.322;2022-07-17T09:21:21;24.90;49.10
65406;DHT22;52016;51.228;-2.322;2022-07-17T09:25:03;24.90;47.80
65406;DHT22;52016;51.228;-2.322;2022-07-17T09:28:46;25.00;48.30
65406;DHT22;52016;51.228;-2.322;2022-07-17T09:32:32;25.10;47.70
65406;DHT22;52016;51.228;-2.322;2022-07-17T09:36:14;25.20;47.90
65406;DHT22;52016;51.228;-2.322;2022-07-17T09:39:57;25.30;47.80
65406;DHT22;52016;51.228;-2.322;2022-07-17T09:43:49;25.40;47.60
65406;DHT22;52016;51.228;-2.322;2022-07-17T09:47:33;25.40;47.50
65406;DHT22;52016;51.228;-2.322;2022-07-17T09:51:25;25.60;47.50
65406;DHT22;52016;51.228;-2.322;2022-07-17T09:55:07;25.70;46.30
65406;DHT22;52016;51.228;-2.322;2022-07-17T09:59:11;25.90;47.00
65406;DHT22;52016;51.228;-2.322;2022-07-17T10:02:53;25.90;46.50
65406;DHT22;52016;51.228;-2.322;2022-07-17T10:06:36;26.00;46.30
65406;DHT22;52016;51.228;-2.322;2022-07-17T10:10:18;26.10;46.10
65406;DHT22;52016;51.228;-2.322;2022-07-17T10:14:11;26.30;45.60
65406;DHT22;52016;51.228;-2.322;2022-07-17T10:18:05;26.40;42.60
65406;DHT22;52016;51.228;-2.322;2022-07-17T10:21:54;26.40;42.60
65406;DHT22;52016;51.228;-2.322;2022-07-17T10:25:36;26.60;42.40
65406;DHT22;52016;51.228;-2.322;2022-07-17T10:29:29;26.70;43.60
65406;DHT22;52016;51.228;-2.322;2022-07-17T10:33:15;26.70;41.80
65406;DHT22;52016;51.228;-2.322;2022-07-17T10:36:58;26.70;41.90
65406;DHT22;52016;51.228;-2.322;2022-07-17T10:40:41;26.90;42.50
65406;DHT22;52016;51.228;-2.322;2022-07-17T10:44:27;27.00;42.10
65406;DHT22;52016;51.228;-2.322;2022-07-17T10:48:20;27.10;41.40
65406;DHT22;52016;51.228;-2.322;2022-07-17T10:52:02;27.20;40.30
65406;DHT22;52016;51.228;-2.322;2022-07-17T10:55:49;27.30;41.10
65406;DHT22;52016;51.228;-2.322;2022-07-17T10:59:32;27.40;41.20
65406;DHT22;52016;51.228;-2.322;2022-07-17T11:03:14;27.40;40.90
65406;DHT22;52016;51.228;-2.322;2022-07-17T11:07:06;27.40;40.90
65406;DHT22;52016;51.228;-2.322;2022-07-17T11:10:48;27.50;39.10
65406;DHT22;52016;51.228;-2.322;2022-07-17T11:14:30;27.60;40.50
65406;DHT22;52016;51.228;-2.322;2022-07-17T11:18:16;27.60;40.10
65406;DHT22;52016;51.228;-2.322;2022-07-17T11:22:00;27.70;39.90
65406;DHT22;52016;51.228;-2.322;2022-07-17T11:26:05;27.70;39.30
65406;DHT22;52016;51.228;-2.322;2022-07-17T11:29:48;27.70;36.80
65406;DHT22;52016;51.228;-2.322;2022-07-17T11:33:30;27.90;38.80
65406;DHT22;52016;51.228;-2.322;2022-07-17T11:37:12;27.90;38.30
65406;DHT22;52016;51.228;-2.322;2022-07-17T11:40:55;28.00;38.30
65406;DHT22;52016;51.228;-2.322;2022-07-17T11:44:43;28.10;37.80
65406;DHT22;52016;51.228;-2.322;2022-07-17T11:48:25;28.20;37.70
65406;DHT22;52016;51.228;-2.322;2022-07-17T11:55:49;28.40;37.10
65406;DHT22;52016;51.228;-2.322;2022-07-17T11:59:32;28.70;37.40
65406;DHT22;52016;51.228;-2.322;2022-07-17T12:03:14;29.10;37.60
65406;DHT22;52016;51.228;-2.322;2022-07-17T12:07:01;29.40;37.50
65406;DHT22;52016;51.228;-2.322;2022-07-17T12:10:43;29.60;36.20
65406;DHT22;52016;51.228;-2.322;2022-07-17T12:14:25;29.80;36.80
65406;DHT22;52016;51.228;-2.322;2022-07-17T12:18:23;29.80;36.50
65406;DHT22;52016;51.228;-2.322;2022-07-17T12:22:05;29.80;34.90
65406;DHT22;52016;51.228;-2.322;2022-07-17T12:25:47;29.90;36.80
65406;DHT22;52016;51.228;-2.322;2022-07-17T12:29:29;30.10;36.30
65406;DHT22;52016;51.228;-2.322;2022-07-17T12:33:11;30.40;36.50
65406;DHT22;52016;51.228;-2.322;2022-07-17T12:36:53;30.60;36.30
65406;DHT22;52016;51.228;-2.322;2022-07-17T12:40:35;30.80;36.20
65406;DHT22;52016;51.228;-2.322;2022-07-17T12:44:17;30.90;35.80
65406;DHT22;52016;51.228;-2.322;2022-07-17T12:47:59;31.00;35.40
65406;DHT22;52016;51.228;-2.322;2022-07-17T12:51:41;31.10;35.50
65406;DHT22;52016;51.228;-2.322;2022-07-17T12:55:23;31.20;35.40
65406;DHT22;52016;51.228;-2.322;2022-07-17T12:59:05;31.40;34.90
65406;DHT22;52016;51.228;-2.322;2022-07-17T13:02:47;31.40;34.70
65406;DHT22;52016;51.228;-2.322;2022-07-17T13:06:42;31.70;34.90
65406;DHT22;52016;51.228;-2.322;2022-07-17T13:10:24;31.90;34.30
65406;DHT22;52016;51.228;-2.322;2022-07-17T13:14:07;32.00;34.40
65406;DHT22;52016;51.228;-2.322;2022-07-17T13:17:53;32.20;34.30
65406;DHT22;52016;51.228;-2.322;2022-07-17T13:21:35;32.40;34.30
65406;DHT22;52016;51.228;-2.322;2022-07-17T13:25:17;32.50;33.10
65406;DHT22;52016;51.228;-2.322;2022-07-17T13:28:59;32.70;33.20
65406;DHT22;52016;51.228;-2.322;2022-07-17T13:32:41;32.80;33.10
65406;DHT22;52016;51.228;-2.322;2022-07-17T13:36:23;33.20;32.90
65406;DHT22;52016;51.228;-2.322;2022-07-17T13:40:06;33.30;32.70
65406;DHT22;52016;51.228;-2.322;2022-07-17T13:43:48;33.40;32.40
65406;DHT22;52016;51.228;-2.322;2022-07-17T13:47:30;33.40;32.30
65406;DHT22;52016;51.228;-2.322;2022-07-17T13:51:13;33.70;31.90
65406;DHT22;52016;51.228;-2.322;2022-07-17T13:54:55;33.80;31.70
65406;DHT22;52016;51.228;-2.322;2022-07-17T13:58:57;33.90;31.10
65406;DHT22;52016;51.228;-2.322;2022-07-17T14:02:39;34.00;30.70
65406;DHT22;52016;51.228;-2.322;2022-07-17T14:06:22;34.10;30.70
65406;DHT22;52016;51.228;-2.322;2022-07-17T14:10:04;34.20;30.70
65406;DHT22;52016;51.228;-2.322;2022-07-17T14:13:46;34.30;30.50
65406;DHT22;52016;51.228;-2.322;2022-07-17T14:17:31;34.50;30.40
65406;DHT22;52016;51.228;-2.322;2022-07-17T14:21:13;34.70;30.00
65406;DHT22;52016;51.228;-2.322;2022-07-17T14:24:55;34.80;30.20
65406;DHT22;52016;51.228;-2.322;2022-07-17T14:28:37;35.10;30.20
65406;DHT22;52016;51.228;-2.322;2022-07-17T14:32:19;35.40;30.00
65406;DHT22;52016;51.228;-2.322;2022-07-17T14:36:01;35.50;29.50
65406;DHT22;52016;51.228;-2.322;2022-07-17T14:39:43;35.70;29.00
65406;DHT22;52016;51.228;-2.322;2022-07-17T14:43:27;35.90;28.50
65406;DHT22;52016;51.228;-2.322;2022-07-17T14:47:08;36.00;28.30
65406;DHT22;52016;51.228;-2.322;2022-07-17T14:50:51;36.20;28.20
65406;DHT22;52016;51.228;-2.322;2022-07-17T14:54:32;36.30;27.90
65406;DHT22;52016;51.228;-2.322;2022-07-17T14:58:14;36.20;28.10
65406;DHT22;52016;51.228;-2.322;2022-07-17T15:01:57;36.30;27.60
65406;DHT22;52016;51.228;-2.322;2022-07-17T15:05:39;36.40;27.20
65406;DHT22;52016;51.228;-2.322;2022-07-17T15:09:21;36.30;27.00
65406;DHT22;52016;51.228;-2.322;2022-07-17T15:13:03;36.50;26.90
65406;DHT22;52016;51.228;-2.322;2022-07-17T15:16:45;36.30;26.70
65406;DHT22;52016;51.228;-2.322;2022-07-17T15:20:27;36.50;26.80
65406;DHT22;52016;51.228;-2.322;2022-07-17T15:24:09;36.60;26.70
65406;DHT22;52016;51.228;-2.322;2022-07-17T15:27:51;36.90;26.50
65406;DHT22;52016;51.228;-2.322;2022-07-17T15:31:33;36.90;26.40
65406;DHT22;52016;51.228;-2.322;2022-07-17T15:35:15;37.20;26.30
65406;DHT22;52016;51.228;-2.322;2022-07-17T15:38:58;37.30;25.70
65406;DHT22;52016;51.228;-2.322;2022-07-17T15:42:44;37.20;25.60
65406;DHT22;52016;51.228;-2.322;2022-07-17T15:46:26;37.00;25.50
65406;DHT22;52016;51.228;-2.322;2022-07-17T15:50:09;37.00;25.10
65406;DHT22;52016;51.228;-2.322;2022-07-17T15:53:51;36.80;24.80
65406;DHT22;52016;51.228;-2.322;2022-07-17T15:57:32;36.60;24.90
65406;DHT22;52016;51.228;-2.322;2022-07-17T16:01:21;36.60;24.90
65406;DHT22;52016;51.228;-2.322;2022-07-17T16:05:04;36.70;24.80
65406;DHT22;52016;51.228;-2.322;2022-07-17T16:08:46;36.90;24.30
65406;DHT22;52016;51.228;-2.322;2022-07-17T16:12:28;37.10;23.90
65406;DHT22;52016;51.228;-2.322;2022-07-17T16:16:12;37.20;23.60
65406;DHT22;52016;51.228;-2.322;2022-07-17T16:19:55;37.00;23.40
65406;DHT22;52016;51.228;-2.322;2022-07-17T16:23:38;36.60;23.40
65406;DHT22;52016;51.228;-2.322;2022-07-17T16:27:20;36.40;23.70
65406;DHT22;52016;51.228;-2.322;2022-07-17T16:31:03;36.20;23.80
65406;DHT22;52016;51.228;-2.322;2022-07-17T16:34:45;36.30;23.90
65406;DHT22;52016;51.228;-2.322;2022-07-17T16:38:27;36.40;23.90
65406;DHT22;52016;51.228;-2.322;2022-07-17T16:42:09;36.60;23.70
65406;DHT22;52016;51.228;-2.322;2022-07-17T16:45:51;36.80;23.70
65406;DHT22;52016;51.228;-2.322;2022-07-17T16:49:33;36.70;23.80
65406;DHT22;52016;51.228;-2.322;2022-07-17T16:53:16;37.00;23.60
65406;DHT22;52016;51.228;-2.322;2022-07-17T16:56:59;37.30;23.60
65406;DHT22;52016;51.228;-2.322;2022-07-17T17:00:41;37.40;23.50
65406;DHT22;52016;51.228;-2.322;2022-07-17T17:04:23;37.70;23.40
65406;DHT22;52016;51.228;-2.322;2022-07-17T17:08:05;38.10;23.40
65406;DHT22;52016;51.228;-2.322;2022-07-17T17:11:47;38.60;22.90
65406;DHT22;52016;51.228;-2.322;2022-07-17T17:15:29;38.90;22.80
65406;DHT22;52016;51.228;-2.322;2022-07-17T17:19:12;38.90;22.80
65406;DHT22;52016;51.228;-2.322;2022-07-17T17:22:53;38.50;22.90
65406;DHT22;52016;51.228;-2.322;2022-07-17T17:26:35;38.40;22.70
65406;DHT22;52016;51.228;-2.322;2022-07-17T17:30:17;38.40;22.60
65406;DHT22;52016;51.228;-2.322;2022-07-17T17:34:00;38.50;22.50
65406;DHT22;52016;51.228;-2.322;2022-07-17T17:37:42;38.70;22.50
65406;DHT22;52016;51.228;-2.322;2022-07-17T17:41:23;38.80;22.50
65406;DHT22;52016;51.228;-2.322;2022-07-17T17:45:06;38.50;22.50
65406;DHT22;52016;51.228;-2.322;2022-07-17T17:48:47;38.60;22.60
65406;DHT22;52016;51.228;-2.322;2022-07-17T17:52:29;38.50;22.50
65406;DHT22;52016;51.228;-2.322;2022-07-17T17:56:11;38.20;22.60
65406;DHT22;52016;51.228;-2.322;2022-07-17T17:59:53;38.00;22.70
65406;DHT22;52016;51.228;-2.322;2022-07-17T18:03:35;38.00;22.70
65406;DHT22;52016;51.228;-2.322;2022-07-17T18:07:17;38.00;22.70
65406;DHT22;52016;51.228;-2.322;2022-07-17T18:10:59;37.90;22.60
65406;DHT22;52016;51.228;-2.322;2022-07-17T18:14:41;37.90;22.70
65406;DHT22;52016;51.228;-2.322;2022-07-17T18:18:23;37.70;22.80
65406;DHT22;52016;51.228;-2.322;2022-07-17T18:22:05;37.50;22.90
65406;DHT22;52016;51.228;-2.322;2022-07-17T18:25:47;37.50;22.90
65406;DHT22;52016;51.228;-2.322;2022-07-17T18:29:29;37.30;23.00
65406;DHT22;52016;51.228;-2.322;2022-07-17T18:33:11;37.10;23.00
65406;DHT22;52016;51.228;-2.322;2022-07-17T18:36:53;37.00;23.10
65406;DHT22;52016;51.228;-2.322;2022-07-17T18:40:35;36.90;23.10
65406;DHT22;52016;51.228;-2.322;2022-07-17T18:44:18;36.60;23.20
65406;DHT22;52016;51.228;-2.322;2022-07-17T18:48:01;36.20;23.30
65406;DHT22;52016;51.228;-2.322;2022-07-17T18:51:43;35.80;23.50
65406;DHT22;52016;51.228;-2.322;2022-07-17T18:55:27;35.30;23.70
65406;DHT22;52016;51.228;-2.322;2022-07-17T18:59:10;34.60;24.00
65406;DHT22;52016;51.228;-2.322;2022-07-17T19:02:52;34.00;24.30
65406;DHT22;52016;51.228;-2.322;2022-07-17T19:06:35;33.70;24.50
65406;DHT22;52016;51.228;-2.322;2022-07-17T19:10:17;33.50;24.60
65406;DHT22;52016;51.228;-2.322;2022-07-17T19:13:59;33.10;24.90
65406;DHT22;52016;51.228;-2.322;2022-07-17T19:17:41;32.70;25.10
65406;DHT22;52016;51.228;-2.322;2022-07-17T19:21:23;32.30;25.40
65406;DHT22;52016;51.228;-2.322;2022-07-17T19:25:06;31.90;25.60
65406;DHT22;52016;51.228;-2.322;2022-07-17T19:28:49;31.60;25.90
65406;DHT22;52016;51.228;-2.322;2022-07-17T19:32:33;31.40;26.00
65406;DHT22;52016;51.228;-2.322;2022-07-17T19:36:15;31.10;26.30
65406;DHT22;52016;51.228;-2.322;2022-07-17T19:39:57;30.80;26.50
65406;DHT22;52016;51.228;-2.322;2022-07-17T19:43:40;30.60;26.70
65406;DHT22;52016;51.228;-2.322;2022-07-17T19:47:21;30.40;26.90
65406;DHT22;52016;51.228;-2.322;2022-07-17T19:51:03;30.20;27.10
65406;DHT22;52016;51.228;-2.322;2022-07-17T19:54:45;30.00;27.20
65406;DHT22;52016;51.228;-2.322;2022-07-17T19:58:27;29.90;27.30
65406;DHT22;52016;51.228;-2.322;2022-07-17T20:02:09;29.80;27.40
65406;DHT22;52016;51.228;-2.322;2022-07-17T20:05:51;29.60;27.50
65406;DHT22;52016;51.228;-2.322;2022-07-17T20:09:34;29.50;27.60
65406;DHT22;52016;51.228;-2.322;2022-07-17T20:13:16;29.30;27.60
65406;DHT22;52016;51.228;-2.322;2022-07-17T20:16:58;29.20;27.70
65406;DHT22;52016;51.228;-2.322;2022-07-17T20:20:40;29.10;27.80
65406;DHT22;52016;51.228;-2.322;2022-07-17T20:24:22;28.90;27.90
65406;DHT22;52016;51.228;-2.322;2022-07-17T20:28:04;28.90;28.10
65406;DHT22;52016;51.228;-2.322;2022-07-17T20:31:46;28.70;28.30
65406;DHT22;52016;51.228;-2.322;2022-07-17T20:35:28;28.50;28.40
65406;DHT22;52016;51.228;-2.322;2022-07-17T20:39:10;28.40;28.60
65406;DHT22;52016;51.228;-2.322;2022-07-17T20:42:52;28.30;28.80
65406;DHT22;52016;51.228;-2.322;2022-07-17T20:46:34;28.10;28.90
65406;DHT22;52016;51.228;-2.322;2022-07-17T20:50:16;28.00;29.00
65406;DHT22;52016;51.228;-2.322;2022-07-17T20:53:58;27.90;29.20
65406;DHT22;52016;51.228;-2.322;2022-07-17T20:57:40;27.80;29.30
65406;DHT22;52016;51.228;-2.322;2022-07-17T21:01:25;27.70;29.50
65406;DHT22;52016;51.228;-2.322;2022-07-17T21:05:08;27.50;29.60
65406;DHT22;52016;51.228;-2.322;2022-07-17T21:08:55;27.40;29.80
65406;DHT22;52016;51.228;-2.322;2022-07-17T21:12:37;27.30;29.90
65406;DHT22;52016;51.228;-2.322;2022-07-17T21:16:19;27.20;30.00
65406;DHT22;52016;51.228;-2.322;2022-07-17T21:20:04;27.10;30.00
65406;DHT22;52016;51.228;-2.322;2022-07-17T21:23:48;27.00;30.00
65406;DHT22;52016;51.228;-2.322;2022-07-17T21:27:30;26.80;30.00
65406;DHT22;52016;51.228;-2.322;2022-07-17T21:31:12;26.80;29.90
65406;DHT22;52016;51.228;-2.322;2022-07-17T21:34:55;26.70;29.90
65406;DHT22;52016;51.228;-2.322;2022-07-17T21:38:37;26.60;29.90
65406;DHT22;52016;51.228;-2.322;2022-07-17T21:42:19;26.50;29.90
65406;DHT22;52016;51.228;-2.322;2022-07-17T21:46:02;26.50;29.90
65406;DHT22;52016;51.228;-2.322;2022-07-17T21:49:45;26.40;29.90
65406;DHT22;52016;51.228;-2.322;2022-07-17T21:53:26;26.40;30.00
65406;DHT22;52016;51.228;-2.322;2022-07-17T21:57:08;26.40;30.10
65406;DHT22;52016;51.228;-2.322;2022-07-17T22:00:51;26.30;30.10
65406;DHT22;52016;51.228;-2.322;2022-07-17T22:04:33;26.30;30.10
65406;DHT22;52016;51.228;-2.322;2022-07-17T22:08:15;26.20;30.20
65406;DHT22;52016;51.228;-2.322;2022-07-17T22:11:57;26.10;30.30
65406;DHT22;52016;51.228;-2.322;2022-07-17T22:15:39;26.10;30.30
65406;DHT22;52016;51.228;-2.322;2022-07-17T22:19:21;26.00;30.50
65406;DHT22;52016;51.228;-2.322;2022-07-17T22:23:04;25.90;30.60
65406;DHT22;52016;51.228;-2.322;2022-07-17T22:26:46;25.80;30.80
65406;DHT22;52016;51.228;-2.322;2022-07-17T22:30:28;25.80;30.90
65406;DHT22;52016;51.228;-2.322;2022-07-17T22:34:10;25.70;31.10
65406;DHT22;52016;51.228;-2.322;2022-07-17T22:37:52;25.50;31.30
65406;DHT22;52016;51.228;-2.322;2022-07-17T22:41:34;25.50;31.70
65406;DHT22;52016;51.228;-2.322;2022-07-17T22:45:16;25.40;31.80
65406;DHT22;52016;51.228;-2.322;2022-07-17T22:48:58;25.30;32.20
65406;DHT22;52016;51.228;-2.322;2022-07-17T22:52:39;25.10;32.50
65406;DHT22;52016;51.228;-2.322;2022-07-17T22:56:22;25.10;32.60
65406;DHT22;52016;51.228;-2.322;2022-07-17T23:00:09;25.10;32.80
65406;DHT22;52016;51.228;-2.322;2022-07-17T23:03:52;25.00;33.20
65406;DHT22;52016;51.228;-2.322;2022-07-17T23:07:35;25.00;33.30